sensor_id;sensor_type;location;lat;lon;timestamp;P1;durP1;ratioP1;P2;durP2;ratioP2
33593;SDS011;19920;52.242;20.940;2023-07-22T00:02:15;10.00;;;5.38;;
33593;SDS011;19920;52.242;20.940;2023-07-22T00:04:40;6.22;;;4.90;;
33593;SDS011;19920;52.242;20.940;2023-07-22T00:07:06;5.80;;;5.20;;
33593;SDS011;19920;52.242;20.940;2023-07-22T00:09:34;6.40;;;5.15;;
33593;SDS011;19920;52.242;20.940;2023-07-22T00:12:00;6.60;;;5.93;;
33593;SDS011;19920;52.242;20.940;2023-07-22T00:14:26;6.40;;;5.55;;
33593;SDS011;19920;52.242;20.940;2023-07-22T00:16:51;8.80;;;5.63;;
33593;SDS011;19920;52.242;20.940;2023-07-22T00:19:17;5.95;;;5.15;;
33593;SDS011;19920;52.242;20.940;2023-07-22T00:21:42;6.05;;;5.45;;
33593;SDS011;19920;52.242;20.940;2023-07-22T00:24:09;5.85;;;5.10;;
33593;SDS011;19920;52.242;20.940;2023-07-22T00:26:35;6.90;;;5.88;;
33593;SDS011;19920;52.242;20.940;2023-07-22T00:29:01;5.90;;;5.40;;
33593;SDS011;19920;52.242;20.940;2023-07-22T00:31:27;6.47;;;5.85;;
33593;SDS011;19920;52.242;20.940;2023-07-22T00:33:53;7.35;;;5.82;;
33593;SDS011;19920;52.242;20.940;2023-07-22T00:36:18;6.07;;;5.45;;
33593;SDS011;19920;52.242;20.940;2023-07-22T00:38:44;6.88;;;5.50;;
33593;SDS011;19920;52.242;20.940;2023-07-22T00:41:09;6.85;;;5.80;;
33593;SDS011;19920;52.242;20.940;2023-07-22T00:43:36;6.10;;;5.50;;
33593;SDS011;19920;52.242;20.940;2023-07-22T00:46:03;6.40;;;5.55;;
33593;SDS011;19920;52.242;20.940;2023-07-22T00:48:29;6.55;;;5.90;;
33593;SDS011;19920;52.242;20.940;2023-07-22T00:50:55;6.22;;;5.63;;
33593;SDS011;19920;52.242;20.940;2023-07-22T00:53:21;6.47;;;5.25;;
33593;SDS011;19920;52.242;20.940;2023-07-22T00:55:47;8.00;;;5.93;;
33593;SDS011;19920;52.242;20.940;2023-07-22T00:58:13;7.47;;;6.20;;
33593;SDS011;19920;52.242;20.940;2023-07-22T01:00:38;8.27;;;6.05;;
33593;SDS011;19920;52.242;20.940;2023-07-22T01:03:04;7.38;;;6.13;;
33593;SDS011;19920;52.242;20.940;2023-07-22T01:05:30;6.70;;;5.97;;
33593;SDS011;19920;52.242;20.940;2023-07-22T01:07:56;6.03;;;5.45;;
33593;SDS011;19920;52.242;20.940;2023-07-22T01:10:22;6.63;;;6.00;;
33593;SDS011;19920;52.242;20.940;2023-07-22T01:12:48;8.10;;;6.35;;
33593;SDS011;19920;52.242;20.940;2023-07-22T01:15:14;7.18;;;6.47;;
33593;SDS011;19920;52.242;20.940;2023-07-22T01:17:40;7.00;;;6.25;;
33593;SDS011;19920;52.242;20.940;2023-07-22T01:20:06;7.50;;;6.70;;
33593;SDS011;19920;52.242;20.940;2023-07-22T01:22:32;9.40;;;6.95;;
33593;SDS011;19920;52.242;20.940;2023-07-22T01:24:59;7.13;;;6.43;;
33593;SDS011;19920;52.242;20.940;2023-07-22T01:27:26;8.05;;;6.53;;
33593;SDS011;19920;52.242;20.940;2023-07-22T01:29:51;10.70;;;6.45;;
33593;SDS011;19920;52.242;20.940;2023-07-22T01:32:17;7.60;;;6.88;;
33593;SDS011;19920;52.242;20.940;2023-07-22T01:34:43;7.97;;;7.18;;
33593;SDS011;19920;52.242;20.940;2023-07-22T01:37:09;8.70;;;7.80;;
33593;SDS011;19920;52.242;20.940;2023-07-22T01:39:35;8.68;;;7.45;;
33593;SDS011;19920;52.242;20.940;2023-07-22T01:42:01;8.60;;;7.70;;
33593;SDS011;19920;52.242;20.940;2023-07-22T01:44:27;10.65;;;7.57;;
33593;SDS011;19920;52.242;20.940;2023-07-22T01:46:53;8.65;;;7.50;;
33593;SDS011;19920;52.242;20.940;2023-07-22T01:49:18;9.40;;;7.75;;
33593;SDS011;19920;52.242;20.940;2023-07-22T01:51:44;9.20;;;8.30;;
33593;SDS011;19920;52.242;20.940;2023-07-22T01:54:10;8.75;;;7.53;;
33593;SDS011;19920;52.242;20.940;2023-07-22T01:56:37;9.02;;;7.80;;
33593;SDS011;19920;52.242;20.940;2023-07-22T01:59:04;8.63;;;7.82;;
33593;SDS011;19920;52.242;20.940;2023-07-22T02:01:30;8.13;;;7.40;;
33593;SDS011;19920;52.242;20.940;2023-07-22T02:03:56;9.70;;;8.13;;
33593;SDS011;19920;52.242;20.940;2023-07-22T02:06:21;11.98;;;8.40;;
33593;SDS011;19920;52.242;20.940;2023-07-22T02:08:47;9.25;;;8.35;;
33593;SDS011;19920;52.242;20.940;2023-07-22T02:11:13;9.25;;;8.35;;
33593;SDS011;19920;52.242;20.940;2023-07-22T02:13:38;10.43;;;9.13;;
33593;SDS011;19920;52.242;20.940;2023-07-22T02:16:04;9.68;;;8.75;;
33593;SDS011;19920;52.242;20.940;2023-07-22T02:18:30;10.38;;;8.77;;
33593;SDS011;19920;52.242;20.940;2023-07-22T02:20:56;10.43;;;9.25;;
33593;SDS011;19920;52.242;20.940;2023-07-22T02:23:22;11.25;;;8.38;;
33593;SDS011;19920;52.242;20.940;2023-07-22T02:25:52;10.00;;;9.00;;
33593;SDS011;19920;52.242;20.940;2023-07-22T02:28:19;9.63;;;8.60;;
33593;SDS011;19920;52.242;20.940;2023-07-22T02:30:53;9.50;;;8.50;;
33593;SDS011;19920;52.242;20.940;2023-07-22T02:33:19;9.55;;;8.52;;
33593;SDS011;19920;52.242;20.940;2023-07-22T02:35:46;9.70;;;8.73;;
33593;SDS011;19920;52.242;20.940;2023-07-22T02:38:12;11.00;;;8.63;;
33593;SDS011;19920;52.242;20.940;2023-07-22T02:40:39;10.23;;;9.23;;
33593;SDS011;19920;52.242;20.940;2023-07-22T02:43:05;10.85;;;9.73;;
33593;SDS011;19920;52.242;20.940;2023-07-22T02:45:32;10.45;;;9.15;;
33593;SDS011;19920;52.242;20.940;2023-07-22T02:47:58;11.13;;;9.40;;
33593;SDS011;19920;52.242;20.940;2023-07-22T02:50:25;11.73;;;9.70;;
33593;SDS011;19920;52.242;20.940;2023-07-22T02:52:50;11.18;;;10.13;;
33593;SDS011;19920;52.242;20.940;2023-07-22T02:55:16;10.00;;;9.00;;
33593;SDS011;19920;52.242;20.940;2023-07-22T03:00:13;10.82;;;9.82;;
33593;SDS011;19920;52.242;20.940;2023-07-22T03:02:48;10.73;;;9.52;;
33593;SDS011;19920;52.242;20.940;2023-07-22T03:05:15;12.30;;;10.43;;
33593;SDS011;19920;52.242;20.940;2023-07-22T03:07:41;11.70;;;10.50;;
33593;SDS011;19920;52.242;20.940;2023-07-22T03:10:07;11.70;;;9.98;;
33593;SDS011;19920;52.242;20.940;2023-07-22T03:12:33;12.50;;;11.20;;
33593;SDS011;19920;52.242;20.940;2023-07-22T03:15:00;11.85;;;10.57;;
33593;SDS011;19920;52.242;20.940;2023-07-22T03:17:26;11.93;;;10.68;;
33593;SDS011;19920;52.242;20.940;2023-07-22T03:19:51;12.35;;;10.82;;
33593;SDS011;19920;52.242;20.940;2023-07-22T03:22:17;12.07;;;10.80;;
33593;SDS011;19920;52.242;20.940;2023-07-22T03:24:44;13.48;;;10.95;;
33593;SDS011;19920;52.242;20.940;2023-07-22T03:27:10;12.32;;;11.13;;
33593;SDS011;19920;52.242;20.940;2023-07-22T03:29:36;13.27;;;10.70;;
33593;SDS011;19920;52.242;20.940;2023-07-22T03:32:02;11.35;;;10.10;;
33593;SDS011;19920;52.242;20.940;2023-07-22T03:34:27;13.15;;;10.60;;
33593;SDS011;19920;52.242;20.940;2023-07-22T03:36:55;11.52;;;10.07;;
33593;SDS011;19920;52.242;20.940;2023-07-22T03:39:21;12.73;;;10.60;;
33593;SDS011;19920;52.242;20.940;2023-07-22T03:41:46;13.80;;;10.85;;
33593;SDS011;19920;52.242;20.940;2023-07-22T03:44:12;10.95;;;9.95;;
33593;SDS011;19920;52.242;20.940;2023-07-22T03:46:38;12.45;;;9.60;;
33593;SDS011;19920;52.242;20.940;2023-07-22T03:49:03;11.45;;;10.27;;
33593;SDS011;19920;52.242;20.940;2023-07-22T03:51:29;10.65;;;9.55;;
33593;SDS011;19920;52.242;20.940;2023-07-22T03:53:55;10.82;;;9.70;;
33593;SDS011;19920;52.242;20.940;2023-07-22T03:56:21;10.45;;;9.35;;
33593;SDS011;19920;52.242;20.940;2023-07-22T03:58:48;11.45;;;8.88;;
33593;SDS011;19920;52.242;20.940;2023-07-22T04:01:14;9.88;;;8.88;;
33593;SDS011;19920;52.242;20.940;2023-07-22T04:03:40;15.35;;;9.30;;
33593;SDS011;19920;52.242;20.940;2023-07-22T04:06:05;9.93;;;8.77;;
33593;SDS011;19920;52.242;20.940;2023-07-22T04:08:31;10.40;;;8.35;;
33593;SDS011;19920;52.242;20.940;2023-07-22T04:10:57;9.60;;;8.70;;
33593;SDS011;19920;52.242;20.940;2023-07-22T04:13:24;9.95;;;8.77;;
33593;SDS011;19920;52.242;20.940;2023-07-22T04:15:50;9.73;;;8.73;;
33593;SDS011;19920;52.242;20.940;2023-07-22T04:18:16;12.75;;;8.68;;
33593;SDS011;19920;52.242;20.940;2023-07-22T04:20:43;9.88;;;8.98;;
33593;SDS011;19920;52.242;20.940;2023-07-22T04:23:10;11.10;;;8.95;;
33593;SDS011;19920;52.242;20.940;2023-07-22T04:25:39;10.82;;;8.60;;
33593;SDS011;19920;52.242;20.940;2023-07-22T04:28:05;10.15;;;9.15;;
33593;SDS011;19920;52.242;20.940;2023-07-22T04:30:31;9.50;;;8.27;;
33593;SDS011;19920;52.242;20.940;2023-07-22T04:32:57;10.38;;;9.25;;
33593;SDS011;19920;52.242;20.940;2023-07-22T04:35:22;11.45;;;8.98;;
33593;SDS011;19920;52.242;20.940;2023-07-22T04:37:48;10.35;;;9.25;;
33593;SDS011;19920;52.242;20.940;2023-07-22T04:40:13;10.77;;;8.80;;
33593;SDS011;19920;52.242;20.940;2023-07-22T04:42:41;11.20;;;10.13;;
33593;SDS011;19920;52.242;20.940;2023-07-22T04:45:07;12.18;;;10.30;;
33593;SDS011;19920;52.242;20.940;2023-07-22T04:47:37;10.35;;;9.38;;
33593;SDS011;19920;52.242;20.940;2023-07-22T04:50:04;12.15;;;9.27;;
33593;SDS011;19920;52.242;20.940;2023-07-22T04:54:59;10.52;;;9.50;;
33593;SDS011;19920;52.242;20.940;2023-07-22T04:57:24;11.23;;;10.07;;
33593;SDS011;19920;52.242;20.940;2023-07-22T04:59:50;12.02;;;10.48;;
33593;SDS011;19920;52.242;20.940;2023-07-22T05:02:16;11.73;;;9.88;;
33593;SDS011;19920;52.242;20.940;2023-07-22T05:04:41;11.85;;;10.68;;
33593;SDS011;19920;52.242;20.940;2023-07-22T05:07:07;12.32;;;10.05;;
33593;SDS011;19920;52.242;20.940;2023-07-22T05:09:32;11.48;;;10.30;;
33593;SDS011;19920;52.242;20.940;2023-07-22T05:11:58;12.10;;;10.32;;
33593;SDS011;19920;52.242;20.940;2023-07-22T05:14:23;11.63;;;10.50;;
33593;SDS011;19920;52.242;20.940;2023-07-22T05:16:49;12.27;;;10.63;;
33593;SDS011;19920;52.242;20.940;2023-07-22T05:19:14;11.80;;;10.52;;
33593;SDS011;19920;52.242;20.940;2023-07-22T05:21:40;13.30;;;10.38;;
33593;SDS011;19920;52.242;20.940;2023-07-22T05:24:06;12.70;;;10.55;;
33593;SDS011;19920;52.242;20.940;2023-07-22T05:26:32;11.88;;;10.70;;
33593;SDS011;19920;52.242;20.940;2023-07-22T05:28:57;13.32;;;10.43;;
33593;SDS011;19920;52.242;20.940;2023-07-22T05:31:23;15.43;;;9.95;;
33593;SDS011;19920;52.242;20.940;2023-07-22T05:33:49;11.20;;;10.10;;
33593;SDS011;19920;52.242;20.940;2023-07-22T05:36:14;13.32;;;10.05;;
33593;SDS011;19920;52.242;20.940;2023-07-22T05:38:40;11.02;;;9.73;;
33593;SDS011;19920;52.242;20.940;2023-07-22T05:41:05;11.52;;;9.98;;
33593;SDS011;19920;52.242;20.940;2023-07-22T05:43:31;11.20;;;9.90;;
33593;SDS011;19920;52.242;20.940;2023-07-22T05:45:57;11.43;;;10.23;;
33593;SDS011;19920;52.242;20.940;2023-07-22T05:48:22;10.65;;;9.30;;
33593;SDS011;19920;52.242;20.940;2023-07-22T05:50:48;10.40;;;8.68;;
33593;SDS011;19920;52.242;20.940;2023-07-22T05:53:13;10.77;;;8.90;;
33593;SDS011;19920;52.242;20.940;2023-07-22T05:55:39;11.38;;;9.32;;
33593;SDS011;19920;52.242;20.940;2023-07-22T05:58:05;9.77;;;8.77;;
33593;SDS011;19920;52.242;20.940;2023-07-22T06:00:31;11.00;;;8.73;;
33593;SDS011;19920;52.242;20.940;2023-07-22T06:02:57;9.20;;;8.32;;
33593;SDS011;19920;52.242;20.940;2023-07-22T06:05:23;9.15;;;8.20;;
33593;SDS011;19920;52.242;20.940;2023-07-22T06:07:49;11.93;;;8.85;;
33593;SDS011;19920;52.242;20.940;2023-07-22T06:10:14;10.95;;;8.50;;
33593;SDS011;19920;52.242;20.940;2023-07-22T06:12:40;9.48;;;8.52;;
33593;SDS011;19920;52.242;20.940;2023-07-22T06:15:06;13.80;;;8.68;;
33593;SDS011;19920;52.242;20.940;2023-07-22T06:17:32;10.20;;;8.60;;
33593;SDS011;19920;52.242;20.940;2023-07-22T06:19:58;9.80;;;8.80;;
33593;SDS011;19920;52.242;20.940;2023-07-22T06:22:24;9.05;;;8.00;;
33593;SDS011;19920;52.242;20.940;2023-07-22T06:24:49;9.48;;;7.35;;
33593;SDS011;19920;52.242;20.940;2023-07-22T06:27:15;9.73;;;8.63;;
33593;SDS011;19920;52.242;20.940;2023-07-22T06:29:41;10.63;;;8.15;;
33593;SDS011;19920;52.242;20.940;2023-07-22T06:32:06;10.52;;;7.68;;
33593;SDS011;19920;52.242;20.940;2023-07-22T06:34:32;8.90;;;7.55;;
33593;SDS011;19920;52.242;20.940;2023-07-22T06:36:57;8.40;;;6.85;;
33593;SDS011;19920;52.242;20.940;2023-07-22T06:39:23;8.65;;;6.93;;
33593;SDS011;19920;52.242;20.940;2023-07-22T06:41:48;7.85;;;7.05;;
33593;SDS011;19920;52.242;20.940;2023-07-22T06:44:14;7.50;;;6.70;;
33593;SDS011;19920;52.242;20.940;2023-07-22T06:46:40;5.80;;;5.20;;
33593;SDS011;19920;52.242;20.940;2023-07-22T06:49:06;6.10;;;5.50;;
33593;SDS011;19920;52.242;20.940;2023-07-22T06:51:32;5.50;;;4.90;;
33593;SDS011;19920;52.242;20.940;2023-07-22T06:53:57;5.30;;;4.63;;
33593;SDS011;19920;52.242;20.940;2023-07-22T06:56:23;5.05;;;4.03;;
33593;SDS011;19920;52.242;20.940;2023-07-22T06:58:49;8.00;;;4.00;;
33593;SDS011;19920;52.242;20.940;2023-07-22T07:01:16;3.97;;;3.40;;
33593;SDS011;19920;52.242;20.940;2023-07-22T07:03:41;5.45;;;3.65;;
33593;SDS011;19920;52.242;20.940;2023-07-22T07:06:07;4.45;;;3.67;;
33593;SDS011;19920;52.242;20.940;2023-07-22T07:08:32;4.13;;;3.72;;
33593;SDS011;19920;52.242;20.940;2023-07-22T07:10:59;4.53;;;4.13;;
33593;SDS011;19920;52.242;20.940;2023-07-22T07:13:25;4.53;;;3.60;;
33593;SDS011;19920;52.242;20.940;2023-07-22T07:15:51;4.75;;;3.72;;
33593;SDS011;19920;52.242;20.940;2023-07-22T07:18:16;4.03;;;3.55;;
33593;SDS011;19920;52.242;20.940;2023-07-22T07:20:42;5.18;;;3.38;;
33593;SDS011;19920;52.242;20.940;2023-07-22T07:23:09;3.85;;;3.35;;
33593;SDS011;19920;52.242;20.940;2023-07-22T07:25:34;5.13;;;3.42;;
33593;SDS011;19920;52.242;20.940;2023-07-22T07:28:00;5.15;;;3.33;;
33593;SDS011;19920;52.242;20.940;2023-07-22T07:30:25;5.72;;;3.80;;
33593;SDS011;19920;52.242;20.940;2023-07-22T07:32:51;4.35;;;3.60;;
33593;SDS011;19920;52.242;20.940;2023-07-22T07:35:16;4.47;;;3.72;;
33593;SDS011;19920;52.242;20.940;2023-07-22T07:37:42;4.25;;;3.30;;
33593;SDS011;19920;52.242;20.940;2023-07-22T07:40:07;4.95;;;3.72;;
33593;SDS011;19920;52.242;20.940;2023-07-22T07:42:33;4.45;;;3.35;;
33593;SDS011;19920;52.242;20.940;2023-07-22T07:44:59;5.82;;;3.33;;
33593;SDS011;19920;52.242;20.940;2023-07-22T07:47:24;7.03;;;3.25;;
33593;SDS011;19920;52.242;20.940;2023-07-22T07:49:50;4.60;;;2.50;;
33593;SDS011;19920;52.242;20.940;2023-07-22T07:52:16;3.70;;;2.45;;
33593;SDS011;19920;52.242;20.940;2023-07-22T07:54:41;6.15;;;2.55;;
33593;SDS011;19920;52.242;20.940;2023-07-22T07:57:07;4.53;;;2.60;;
33593;SDS011;19920;52.242;20.940;2023-07-22T07:59:32;5.55;;;2.85;;
33593;SDS011;19920;52.242;20.940;2023-07-22T08:01:58;5.80;;;2.88;;
33593;SDS011;19920;52.242;20.940;2023-07-22T08:04:23;3.28;;;2.40;;
33593;SDS011;19920;52.242;20.940;2023-07-22T08:06:49;4.60;;;2.40;;
33593;SDS011;19920;52.242;20.940;2023-07-22T08:09:14;5.65;;;2.30;;
33593;SDS011;19920;52.242;20.940;2023-07-22T08:11:44;5.88;;;2.90;;
33593;SDS011;19920;52.242;20.940;2023-07-22T08:14:09;2.80;;;2.03;;
33593;SDS011;19920;52.242;20.940;2023-07-22T08:16:35;5.85;;;2.10;;
33593;SDS011;19920;52.242;20.940;2023-07-22T08:19:01;3.33;;;2.15;;
33593;SDS011;19920;52.242;20.940;2023-07-22T08:21:26;4.28;;;2.00;;
33593;SDS011;19920;52.242;20.940;2023-07-22T08:23:52;4.68;;;2.03;;
33593;SDS011;19920;52.242;20.940;2023-07-22T08:26:17;2.95;;;1.70;;
33593;SDS011;19920;52.242;20.940;2023-07-22T08:28:46;2.47;;;1.77;;
33593;SDS011;19920;52.242;20.940;2023-07-22T08:31:12;4.93;;;2.05;;
33593;SDS011;19920;52.242;20.940;2023-07-22T08:33:37;3.47;;;1.77;;
33593;SDS011;19920;52.242;20.940;2023-07-22T08:36:03;3.25;;;2.08;;
33593;SDS011;19920;52.242;20.940;2023-07-22T08:38:29;3.15;;;1.92;;
33593;SDS011;19920;52.242;20.940;2023-07-22T08:40:54;4.85;;;1.85;;
33593;SDS011;19920;52.242;20.940;2023-07-22T08:43:20;3.03;;;1.90;;
33593;SDS011;19920;52.242;20.940;2023-07-22T08:45:47;3.33;;;1.70;;
33593;SDS011;19920;52.242;20.940;2023-07-22T08:48:15;2.05;;;1.70;;
33593;SDS011;19920;52.242;20.940;2023-07-22T08:50:50;3.70;;;1.70;;
33593;SDS011;19920;52.242;20.940;2023-07-22T08:53:19;5.15;;;2.00;;
33593;SDS011;19920;52.242;20.940;2023-07-22T08:55:44;4.43;;;2.00;;
33593;SDS011;19920;52.242;20.940;2023-07-22T08:58:11;3.47;;;1.50;;
33593;SDS011;19920;52.242;20.940;2023-07-22T09:00:38;4.00;;;1.70;;
33593;SDS011;19920;52.242;20.940;2023-07-22T09:03:04;3.22;;;1.88;;
33593;SDS011;19920;52.242;20.940;2023-07-22T09:05:31;2.78;;;1.83;;
33593;SDS011;19920;52.242;20.940;2023-07-22T09:10:27;3.47;;;1.90;;
33593;SDS011;19920;52.242;20.940;2023-07-22T09:12:53;5.00;;;1.95;;
33593;SDS011;19920;52.242;20.940;2023-07-22T09:15:19;4.15;;;1.92;;
33593;SDS011;19920;52.242;20.940;2023-07-22T09:17:46;2.20;;;1.90;;
33593;SDS011;19920;52.242;20.940;2023-07-22T09:20:13;4.15;;;2.08;;
33593;SDS011;19920;52.242;20.940;2023-07-22T09:22:42;4.07;;;1.92;;
33593;SDS011;19920;52.242;20.940;2023-07-22T09:25:12;4.68;;;2.33;;
33593;SDS011;19920;52.242;20.940;2023-07-22T09:27:45;4.25;;;2.60;;
33593;SDS011;19920;52.242;20.940;2023-07-22T09:32:47;3.15;;;1.98;;
33593;SDS011;19920;52.242;20.940;2023-07-22T09:35:13;2.72;;;2.05;;
33593;SDS011;19920;52.242;20.940;2023-07-22T09:37:38;3.80;;;2.35;;
33593;SDS011;19920;52.242;20.940;2023-07-22T09:40:13;5.20;;;2.20;;
33593;SDS011;19920;52.242;20.940;2023-07-22T09:43:05;3.40;;;1.90;;
33593;SDS011;19920;52.242;20.940;2023-07-22T09:45:31;4.82;;;2.05;;
33593;SDS011;19920;52.242;20.940;2023-07-22T09:47:57;3.30;;;2.20;;
33593;SDS011;19920;52.242;20.940;2023-07-22T09:50:24;3.35;;;1.77;;
33593;SDS011;19920;52.242;20.940;2023-07-22T09:52:51;4.68;;;2.00;;
33593;SDS011;19920;52.242;20.940;2023-07-22T09:55:22;5.35;;;2.00;;
33593;SDS011;19920;52.242;20.940;2023-07-22T10:00:23;3.47;;;1.80;;
33593;SDS011;19920;52.242;20.940;2023-07-22T10:02:51;3.03;;;2.00;;
33593;SDS011;19920;52.242;20.940;2023-07-22T10:05:18;1.35;;;1.25;;
33593;SDS011;19920;52.242;20.940;2023-07-22T10:07:48;2.60;;;1.23;;
33593;SDS011;19920;52.242;20.940;2023-07-22T10:10:17;1.63;;;1.33;;
33593;SDS011;19920;52.242;20.940;2023-07-22T10:12:44;1.88;;;1.20;;
33593;SDS011;19920;52.242;20.940;2023-07-22T10:15:12;1.33;;;1.17;;
33593;SDS011;19920;52.242;20.940;2023-07-22T10:17:40;1.85;;;1.23;;
33593;SDS011;19920;52.242;20.940;2023-07-22T10:20:07;2.30;;;1.45;;
33593;SDS011;19920;52.242;20.940;2023-07-22T10:22:40;2.33;;;1.70;;
33593;SDS011;19920;52.242;20.940;2023-07-22T10:25:07;1.73;;;1.27;;
33593;SDS011;19920;52.242;20.940;2023-07-22T10:27:34;2.15;;;1.30;;
33593;SDS011;19920;52.242;20.940;2023-07-22T10:30:00;2.80;;;1.40;;
33593;SDS011;19920;52.242;20.940;2023-07-22T10:32:33;2.97;;;1.30;;
33593;SDS011;19920;52.242;20.940;2023-07-22T10:37:35;1.95;;;1.10;;
33593;SDS011;19920;52.242;20.940;2023-07-22T10:42:57;2.00;;;1.30;;
33593;SDS011;19920;52.242;20.940;2023-07-22T10:45:32;2.28;;;1.30;;
33593;SDS011;19920;52.242;20.940;2023-07-22T10:48:08;2.88;;;1.65;;
33593;SDS011;19920;52.242;20.940;2023-07-22T10:50:41;3.42;;;1.27;;
33593;SDS011;19920;52.242;20.940;2023-07-22T10:53:09;2.92;;;1.33;;
33593;SDS011;19920;52.242;20.940;2023-07-22T10:58:30;5.00;;;1.40;;
33593;SDS011;19920;52.242;20.940;2023-07-22T11:06:37;2.92;;;2.15;;
33593;SDS011;19920;52.242;20.940;2023-07-22T11:09:04;1.80;;;1.30;;
33593;SDS011;19920;52.242;20.940;2023-07-22T11:11:38;1.83;;;1.38;;
33593;SDS011;19920;52.242;20.940;2023-07-22T11:14:12;2.50;;;1.50;;
33593;SDS011;19920;52.242;20.940;2023-07-22T11:16:42;1.95;;;1.30;;
33593;SDS011;19920;52.242;20.940;2023-07-22T11:19:09;2.03;;;1.40;;
33593;SDS011;19920;52.242;20.940;2023-07-22T11:21:35;1.85;;;1.25;;
33593;SDS011;19920;52.242;20.940;2023-07-22T11:24:02;1.60;;;1.25;;
33593;SDS011;19920;52.242;20.940;2023-07-22T11:26:29;3.28;;;1.70;;
33593;SDS011;19920;52.242;20.940;2023-07-22T11:28:55;3.47;;;1.42;;
33593;SDS011;19920;52.242;20.940;2023-07-22T11:31:22;3.42;;;1.50;;
33593;SDS011;19920;52.242;20.940;2023-07-22T11:33:47;3.08;;;1.55;;
33593;SDS011;19920;52.242;20.940;2023-07-22T11:36:13;2.30;;;1.75;;
33593;SDS011;19920;52.242;20.940;2023-07-22T11:38:39;3.30;;;1.40;;
33593;SDS011;19920;52.242;20.940;2023-07-22T11:41:05;2.40;;;1.42;;
33593;SDS011;19920;52.242;20.940;2023-07-22T11:43:31;2.80;;;1.70;;
33593;SDS011;19920;52.242;20.940;2023-07-22T11:45:57;3.30;;;1.90;;
33593;SDS011;19920;52.242;20.940;2023-07-22T11:48:22;2.30;;;1.48;;
33593;SDS011;19920;52.242;20.940;2023-07-22T11:50:48;3.58;;;1.52;;
33593;SDS011;19920;52.242;20.940;2023-07-22T11:53:14;2.00;;;1.63;;
33593;SDS011;19920;52.242;20.940;2023-07-22T11:55:40;3.13;;;1.50;;
33593;SDS011;19920;52.242;20.940;2023-07-22T11:58:06;3.58;;;1.75;;
33593;SDS011;19920;52.242;20.940;2023-07-22T12:00:32;2.72;;;1.80;;
33593;SDS011;19920;52.242;20.940;2023-07-22T12:03:04;3.38;;;1.55;;
33593;SDS011;19920;52.242;20.940;2023-07-22T12:05:31;3.38;;;1.80;;
33593;SDS011;19920;52.242;20.940;2023-07-22T12:08:00;2.92;;;1.80;;
33593;SDS011;19920;52.242;20.940;2023-07-22T12:10:28;2.97;;;1.75;;
33593;SDS011;19920;52.242;20.940;2023-07-22T12:12:54;2.88;;;1.33;;
33593;SDS011;19920;52.242;20.940;2023-07-22T12:15:25;2.45;;;1.50;;
33593;SDS011;19920;52.242;20.940;2023-07-22T12:17:54;2.10;;;1.60;;
33593;SDS011;19920;52.242;20.940;2023-07-22T12:20:33;5.22;;;1.40;;
33593;SDS011;19920;52.242;20.940;2023-07-22T12:23:00;2.13;;;1.40;;
33593;SDS011;19920;52.242;20.940;2023-07-22T12:25:26;3.35;;;2.10;;
33593;SDS011;19920;52.242;20.940;2023-07-22T12:27:52;4.28;;;1.80;;
33593;SDS011;19920;52.242;20.940;2023-07-22T12:30:17;3.55;;;1.80;;
33593;SDS011;19920;52.242;20.940;2023-07-22T12:32:44;2.58;;;1.52;;
33593;SDS011;19920;52.242;20.940;2023-07-22T12:35:10;4.03;;;1.52;;
33593;SDS011;19920;52.242;20.940;2023-07-22T12:37:36;2.47;;;1.65;;
33593;SDS011;19920;52.242;20.940;2023-07-22T12:40:02;2.97;;;1.60;;
33593;SDS011;19920;52.242;20.940;2023-07-22T12:42:31;1.52;;;1.38;;
33593;SDS011;19920;52.242;20.940;2023-07-22T12:44:56;3.40;;;1.40;;
33593;SDS011;19920;52.242;20.940;2023-07-22T12:47:22;5.10;;;1.77;;
33593;SDS011;19920;52.242;20.940;2023-07-22T12:49:47;2.88;;;2.10;;
33593;SDS011;19920;52.242;20.940;2023-07-22T12:52:13;3.05;;;1.70;;
33593;SDS011;19920;52.242;20.940;2023-07-22T12:54:38;2.38;;;1.58;;
33593;SDS011;19920;52.242;20.940;2023-07-22T12:57:04;4.38;;;1.77;;
33593;SDS011;19920;52.242;20.940;2023-07-22T12:59:30;4.03;;;1.60;;
33593;SDS011;19920;52.242;20.940;2023-07-22T13:01:56;2.20;;;1.52;;
33593;SDS011;19920;52.242;20.940;2023-07-22T13:04:23;3.45;;;1.52;;
33593;SDS011;19920;52.242;20.940;2023-07-22T13:06:49;2.63;;;1.85;;
33593;SDS011;19920;52.242;20.940;2023-07-22T13:09:16;1.88;;;1.63;;
33593;SDS011;19920;52.242;20.940;2023-07-22T13:11:42;4.78;;;1.60;;
33593;SDS011;19920;52.242;20.940;2023-07-22T13:14:08;2.55;;;1.50;;
33593;SDS011;19920;52.242;20.940;2023-07-22T13:16:33;4.43;;;1.90;;
33593;SDS011;19920;52.242;20.940;2023-07-22T13:18:59;4.20;;;1.50;;
33593;SDS011;19920;52.242;20.940;2023-07-22T13:21:26;7.03;;;1.88;;
33593;SDS011;19920;52.242;20.940;2023-07-22T13:23:52;3.60;;;1.60;;
33593;SDS011;19920;52.242;20.940;2023-07-22T13:26:17;3.83;;;1.50;;
33593;SDS011;19920;52.242;20.940;2023-07-22T13:28:43;8.55;;;1.75;;
33593;SDS011;19920;52.242;20.940;2023-07-22T13:31:08;3.95;;;1.58;;
33593;SDS011;19920;52.242;20.940;2023-07-22T13:33:34;4.40;;;1.80;;
33593;SDS011;19920;52.242;20.940;2023-07-22T13:35:59;5.45;;;1.90;;
33593;SDS011;19920;52.242;20.940;2023-07-22T13:38:25;2.35;;;1.50;;
33593;SDS011;19920;52.242;20.940;2023-07-22T13:40:50;2.15;;;1.75;;
33593;SDS011;19920;52.242;20.940;2023-07-22T13:43:16;3.63;;;2.03;;
33593;SDS011;19920;52.242;20.940;2023-07-22T13:45:42;2.42;;;1.88;;
33593;SDS011;19920;52.242;20.940;2023-07-22T13:48:07;2.38;;;1.55;;
33593;SDS011;19920;52.242;20.940;2023-07-22T13:50:33;4.18;;;1.65;;
33593;SDS011;19920;52.242;20.940;2023-07-22T13:52:58;4.15;;;2.10;;
33593;SDS011;19920;52.242;20.940;2023-07-22T13:55:24;3.15;;;1.73;;
33593;SDS011;19920;52.242;20.940;2023-07-22T13:57:49;1.67;;;1.50;;
33593;SDS011;19920;52.242;20.940;2023-07-22T14:00:15;3.03;;;2.00;;
33593;SDS011;19920;52.242;20.940;2023-07-22T14:02:41;4.63;;;2.10;;
33593;SDS011;19920;52.242;20.940;2023-07-22T14:05:07;2.55;;;1.80;;
33593;SDS011;19920;52.242;20.940;2023-07-22T14:07:33;6.45;;;1.88;;
33593;SDS011;19920;52.242;20.940;2023-07-22T14:10:00;2.15;;;1.70;;
33593;SDS011;19920;52.242;20.940;2023-07-22T14:12:25;2.60;;;1.75;;
33593;SDS011;19920;52.242;20.940;2023-07-22T14:14:51;3.28;;;2.40;;
33593;SDS011;19920;52.242;20.940;2023-07-22T14:17:16;5.97;;;2.50;;
33593;SDS011;19920;52.242;20.940;2023-07-22T14:19:42;2.83;;;1.65;;
33593;SDS011;19920;52.242;20.940;2023-07-22T14:22:07;3.78;;;1.70;;
33593;SDS011;19920;52.242;20.940;2023-07-22T14:24:33;3.85;;;1.98;;
33593;SDS011;19920;52.242;20.940;2023-07-22T14:26:59;2.25;;;1.77;;
33593;SDS011;19920;52.242;20.940;2023-07-22T14:29:24;2.60;;;1.50;;
33593;SDS011;19920;52.242;20.940;2023-07-22T14:31:50;4.38;;;1.83;;
33593;SDS011;19920;52.242;20.940;2023-07-22T14:34:16;2.63;;;1.50;;
33593;SDS011;19920;52.242;20.940;2023-07-22T14:36:42;3.25;;;1.77;;
33593;SDS011;19920;52.242;20.940;2023-07-22T14:39:08;3.70;;;1.70;;
33593;SDS011;19920;52.242;20.940;2023-07-22T14:41:34;4.45;;;1.92;;
33593;SDS011;19920;52.242;20.940;2023-07-22T14:43:59;2.08;;;1.50;;
33593;SDS011;19920;52.242;20.940;2023-07-22T14:46:25;3.45;;;1.60;;
33593;SDS011;19920;52.242;20.940;2023-07-22T14:48:51;3.78;;;1.70;;
33593;SDS011;19920;52.242;20.940;2023-07-22T14:51:16;3.33;;;1.70;;
33593;SDS011;19920;52.242;20.940;2023-07-22T14:53:42;4.45;;;1.88;;